createdAt,value
2023-01-15T00:00:13.361Z,100.00
2023-01-15T00:01:13.457Z,100.00
2023-01-15T00:02:13.585Z,100.00
2023-01-15T00:03:13.469Z,100.00
2023-01-15T00:04:13.702Z,100.00
2023-01-15T00:05:13.771Z,100.00
2023-01-15T00:06:14.050Z,100.00
2023-01-15T00:07:13.041Z,100.00
2023-01-15T00:08:12.990Z,100.00
2023-01-15T00:09:12.869Z,100.00
2023-01-15T00:10:13.812Z,100.00
2023-01-15T00:11:13.734Z,100.00
2023-01-15T00:12:13.578Z,100.00
2023-01-15T00:13:13.564Z,100.00
2023-01-15T00:14:13.651Z,100.00
2023-01-15T00:15:14.666Z,100.00
2023-01-15T00:16:13.947Z,100.00
2023-01-15T00:17:13.080Z,100.00
2023-01-15T00:18:13.208Z,100.00
2023-01-15T00:19:13.620Z,100.00
2023-01-15T00:20:13.589Z,100.00
2023-01-15T00:21:14.077Z,100.00
2023-01-15T00:22:13.401Z,100.00
2023-01-15T00:23:13.320Z,100.00
2023-01-15T00:24:13.641Z,100.00
2023-01-15T00:25:13.836Z,100.00
2023-01-15T00:26:14.372Z,100.00
2023-01-15T00:27:13.515Z,100.00
2023-01-15T00:28:13.365Z,100.00
2023-01-15T00:29:13.287Z,100.00
2023-01-15T00:30:13.217Z,100.00
2023-01-15T00:31:13.662Z,100.00
2023-01-15T00:32:13.566Z,100.00
2023-01-15T00:33:13.566Z,100.00
2023-01-15T00:34:13.860Z,100.00
2023-01-15T00:35:13.799Z,100.00
2023-01-15T00:36:13.695Z,100.00
2023-01-15T00:37:13.669Z,100.00
2023-01-15T00:38:13.704Z,100.00
2023-01-15T00:39:13.686Z,100.00
2023-01-15T00:40:13.591Z,100.00
2023-01-15T00:41:13.791Z,100.00
2023-01-15T00:42:14.033Z,100.00
2023-01-15T00:43:13.023Z,100.00
2023-01-15T00:44:12.977Z,100.00
2023-01-15T00:45:12.904Z,100.00
2023-01-15T00:46:13.060Z,100.00
2023-01-15T00:47:13.111Z,100.00
2023-01-15T00:48:13.060Z,100.00
2023-01-15T00:49:13.020Z,100.00
2023-01-15T00:50:13.114Z,100.00
2023-01-15T00:51:13.249Z,100.00
2023-01-15T00:52:13.172Z,100.00
2023-01-15T00:53:13.126Z,100.00
2023-01-15T00:54:13.095Z,100.00
2023-01-15T00:55:13.003Z,100.00
2023-01-15T00:56:13.421Z,100.00
2023-01-15T00:57:13.341Z,100.00
2023-01-15T00:58:13.304Z,100.00
2023-01-15T00:59:13.136Z,100.00
2023-01-15T01:00:13.035Z,100.00
2023-01-15T01:01:13.015Z,100.00
2023-01-15T01:02:13.140Z,100.00
2023-01-15T01:03:13.300Z,100.00
2023-01-15T01:04:13.355Z,100.00
2023-01-15T01:05:13.245Z,100.00
2023-01-15T01:06:13.362Z,100.00
2023-01-15T01:07:13.658Z,100.00
2023-01-15T01:08:13.788Z,100.00
2023-01-15T01:09:13.744Z,100.00
2023-01-15T01:10:13.804Z,100.00
2023-01-15T01:11:14.021Z,100.00
2023-01-15T01:12:13.125Z,100.00
2023-01-15T01:13:13.139Z,100.00
2023-01-15T01:14:13.798Z,100.00
2023-01-15T01:15:14.072Z,100.00
2023-01-15T01:16:13.037Z,100.00
2023-01-15T01:17:13.260Z,100.00
2023-01-15T01:18:13.230Z,100.00
2023-01-15T01:19:13.228Z,100.00
2023-01-15T01:20:13.508Z,100.00
2023-01-15T01:21:13.608Z,100.00
2023-01-15T01:22:13.523Z,100.00
2023-01-15T01:23:13.358Z,100.00
2023-01-15T01:24:13.431Z,100.00
2023-01-15T01:25:13.395Z,100.00
2023-01-15T01:26:13.366Z,100.00
2023-01-15T01:27:13.815Z,100.00
2023-01-15T01:28:13.756Z,100.00
2023-01-15T01:29:13.874Z,100.00
2023-01-15T01:30:13.817Z,100.00
2023-01-15T01:31:14.184Z,100.00
2023-01-15T01:32:13.398Z,100.00
2023-01-15T01:33:13.309Z,100.00
2023-01-15T01:34:13.924Z,100.00
2023-01-15T01:35:12.968Z,100.00
2023-01-15T01:36:13.118Z,100.00
2023-01-15T01:37:13.082Z,100.00
2023-01-15T01:38:13.752Z,100.00
2023-01-15T01:39:13.756Z,100.00
2023-01-15T01:40:13.716Z,100.00
2023-01-15T01:41:13.670Z,100.00
2023-01-15T01:42:13.582Z,100.00
2023-01-15T01:43:13.576Z,100.00
2023-01-15T01:44:13.773Z,100.00
2023-01-15T01:45:13.944Z,100.00
2023-01-15T01:46:12.820Z,100.00
2023-01-15T01:47:13.876Z,100.00
2023-01-15T01:48:13.769Z,100.00
2023-01-15T01:49:13.734Z,100.00
2023-01-15T01:50:13.677Z,100.00
2023-01-15T01:51:13.596Z,100.00
2023-01-15T01:52:13.495Z,100.00
2023-01-15T01:53:13.907Z,100.00
2023-01-15T01:54:13.216Z,100.00
2023-01-15T01:55:13.547Z,100.00
2023-01-15T01:56:13.733Z,100.00
2023-01-15T01:57:13.982Z,100.00
2023-01-15T01:58:13.039Z,100.00
2023-01-15T01:59:13.401Z,100.00
2023-01-15T02:00:13.439Z,100.00
2023-01-15T02:01:13.565Z,100.00
2023-01-15T02:02:13.776Z,100.00
2023-01-15T02:03:13.802Z,100.00
2023-01-15T02:04:13.718Z,100.00
2023-01-15T02:05:13.618Z,100.00
2023-01-15T02:06:13.715Z,100.00
2023-01-15T02:07:13.868Z,100.00
2023-01-15T02:08:13.928Z,100.00
2023-01-15T02:09:12.859Z,100.00
2023-01-15T02:10:13.970Z,100.00
2023-01-15T02:11:13.136Z,100.00
2023-01-15T02:12:13.445Z,100.00
2023-01-15T02:13:13.380Z,100.00
2023-01-15T02:14:13.317Z,100.00
2023-01-15T02:15:13.255Z,100.00
2023-01-15T02:16:18.372Z,100.00
2023-01-15T02:17:13.351Z,100.00
2023-01-15T02:18:13.213Z,100.00
2023-01-15T02:19:13.263Z,100.00
2023-01-15T02:20:13.141Z,100.00
2023-01-15T02:21:13.611Z,100.00
2023-01-15T02:22:13.926Z,100.00
2023-01-15T02:23:12.979Z,100.00
2023-01-15T02:24:12.970Z,100.00
2023-01-15T02:25:13.064Z,100.00
2023-01-15T02:26:13.035Z,100.00
2023-01-15T02:27:13.448Z,100.00
2023-01-15T02:28:13.389Z,100.00
2023-01-15T02:29:13.470Z,100.00
2023-01-15T02:30:13.400Z,100.00
2023-01-15T02:31:13.369Z,100.00
2023-01-15T02:32:13.888Z,100.00
2023-01-15T02:33:14.434Z,100.00
2023-01-15T02:34:13.481Z,100.00
2023-01-15T02:35:14.499Z,100.00
2023-01-15T02:36:13.547Z,100.00
2023-01-15T02:37:18.567Z,100.00
2023-01-15T02:38:13.580Z,100.00
2023-01-15T02:39:13.777Z,100.00
2023-01-15T02:40:14.177Z,100.00
2023-01-15T02:41:13.163Z,100.00
2023-01-15T02:42:13.126Z,100.00
2023-01-15T02:43:13.274Z,100.00
2023-01-15T02:44:13.692Z,100.00
2023-01-15T02:45:13.566Z,100.00
2023-01-15T02:46:13.633Z,100.00
2023-01-15T02:47:13.621Z,100.00
2023-01-15T02:48:14.120Z,100.00
2023-01-15T02:49:13.121Z,100.00
2023-01-15T02:50:13.078Z,100.00
2023-01-15T02:51:13.110Z,100.00
2023-01-15T02:52:13.046Z,100.00
2023-01-15T02:53:13.170Z,100.00
2023-01-15T02:54:13.631Z,100.00
2023-01-15T02:55:13.648Z,100.00
2023-01-15T02:56:13.722Z,100.00
2023-01-15T02:57:13.702Z,100.00
2023-01-15T02:58:13.647Z,100.00
2023-01-15T02:59:13.575Z,100.00
2023-01-15T03:00:13.518Z,100.00
2023-01-15T03:01:14.130Z,100.00
2023-01-15T03:02:13.292Z,100.00
2023-01-15T03:03:13.460Z,100.00
2023-01-15T03:04:13.356Z,100.00
2023-01-15T03:05:13.380Z,100.00
2023-01-15T03:06:13.338Z,100.00
2023-01-15T03:07:13.293Z,100.00
2023-01-15T03:08:13.233Z,100.00
2023-01-15T03:09:13.203Z,100.00
2023-01-15T03:10:13.174Z,100.00
2023-01-15T03:11:13.147Z,100.00
2023-01-15T03:12:13.363Z,100.00
2023-01-15T03:13:13.601Z,100.00
2023-01-15T03:14:13.649Z,100.00
2023-01-15T03:15:13.864Z,100.00
2023-01-15T03:16:13.890Z,100.00
2023-01-15T03:17:13.230Z,100.00
2023-01-15T03:18:13.301Z,100.00
2023-01-15T03:19:13.281Z,100.00
2023-01-15T03:20:13.519Z,100.00
2023-01-15T03:21:13.458Z,100.00
2023-01-15T03:22:13.366Z,100.00
2023-01-15T03:23:13.280Z,100.00
2023-01-15T03:24:13.490Z,100.00
2023-01-15T03:25:13.533Z,100.00
2023-01-15T03:26:13.772Z,100.00
2023-01-15T03:27:13.778Z,100.00
2023-01-15T03:28:13.767Z,100.00
2023-01-15T03:29:13.678Z,100.00
2023-01-15T03:30:13.946Z,100.00
2023-01-15T03:31:13.001Z,100.00
2023-01-15T03:32:13.265Z,100.00
2023-01-15T03:33:13.205Z,100.00
2023-01-15T03:34:13.048Z,100.00
2023-01-15T03:35:12.899Z,100.00
2023-01-15T03:36:13.054Z,100.00
2023-01-15T03:37:13.016Z,100.00
2023-01-15T03:38:12.954Z,100.00
2023-01-15T03:39:13.063Z,100.00
2023-01-15T03:40:13.011Z,100.00
2023-01-15T03:41:13.106Z,100.00
2023-01-15T03:42:13.218Z,100.00
2023-01-15T03:43:13.445Z,100.00
2023-01-15T03:44:14.400Z,100.00
2023-01-15T03:45:14.659Z,100.00
2023-01-15T03:46:13.813Z,100.00
2023-01-15T03:47:13.899Z,100.00
2023-01-15T03:48:13.027Z,100.00
2023-01-15T03:49:13.062Z,100.00
2023-01-15T03:50:12.902Z,100.00
2023-01-15T03:51:13.187Z,100.00
2023-01-15T03:52:13.339Z,100.00
2023-01-15T03:53:13.311Z,100.00
2023-01-15T03:54:13.421Z,100.00
2023-01-15T03:55:13.470Z,100.00
2023-01-15T03:56:14.005Z,100.00
2023-01-15T03:57:12.929Z,100.00
2023-01-15T03:58:12.849Z,100.00
2023-01-15T03:59:14.169Z,100.00
2023-01-15T04:00:13.528Z,100.00
2023-01-15T04:01:15.344Z,100.00
2023-01-15T04:02:13.602Z,100.00
2023-01-15T04:03:13.993Z,100.00
2023-01-15T04:04:13.094Z,100.00
2023-01-15T04:05:13.132Z,100.00
2023-01-15T04:06:13.502Z,100.00
2023-01-15T04:07:13.429Z,100.00
2023-01-15T04:08:13.537Z,100.00
2023-01-15T04:09:13.476Z,100.00
2023-01-15T04:10:13.775Z,100.00
2023-01-15T04:11:13.748Z,100.00
2023-01-15T04:12:13.621Z,100.00
2023-01-15T04:13:13.599Z,100.00
2023-01-15T04:14:13.748Z,100.00
2023-01-15T04:15:13.935Z,100.00
2023-01-15T04:16:12.972Z,100.00
2023-01-15T04:17:13.207Z,100.00
2023-01-15T04:18:13.480Z,100.00
2023-01-15T04:19:13.573Z,100.00
2023-01-15T04:20:13.811Z,100.00
2023-01-15T04:21:13.660Z,100.00
2023-01-15T04:22:13.569Z,100.00
2023-01-15T04:23:13.778Z,100.00
2023-01-15T04:24:13.695Z,100.00
2023-01-15T04:25:13.812Z,100.00
2023-01-15T04:26:14.001Z,100.00
2023-01-15T04:27:13.158Z,100.00
2023-01-15T04:28:13.084Z,100.00
2023-01-15T04:29:13.486Z,100.00
2023-01-15T04:30:13.469Z,100.00
2023-01-15T04:31:14.875Z,100.00
2023-01-15T04:32:12.865Z,100.00
2023-01-15T04:33:13.930Z,100.00
2023-01-15T04:34:13.150Z,100.00
2023-01-15T04:35:13.112Z,100.00
2023-01-15T04:36:13.422Z,100.00
2023-01-15T04:37:13.627Z,100.00
2023-01-15T04:38:13.829Z,100.00
2023-01-15T04:39:14.112Z,100.00
2023-01-15T04:40:13.092Z,100.00
2023-01-15T04:41:13.135Z,100.00
2023-01-15T04:42:13.090Z,100.00
2023-01-15T04:43:13.196Z,100.00
2023-01-15T04:44:13.116Z,100.00
2023-01-15T04:45:13.218Z,100.00
2023-01-15T04:46:13.151Z,100.00
2023-01-15T04:47:13.090Z,100.00
2023-01-15T04:48:12.982Z,100.00
2023-01-15T04:49:13.032Z,100.00
2023-01-15T04:50:13.358Z,100.00
2023-01-15T04:51:13.290Z,100.00
2023-01-15T04:52:13.244Z,100.00
2023-01-15T04:53:13.186Z,100.00
2023-01-15T04:54:13.080Z,100.00
2023-01-15T04:55:12.938Z,100.00
2023-01-15T04:56:13.016Z,100.00
2023-01-15T04:57:12.951Z,100.00
2023-01-15T04:58:13.138Z,100.00
2023-01-15T04:59:13.070Z,100.00
2023-01-15T05:00:12.893Z,100.00
2023-01-15T05:01:13.150Z,100.00
2023-01-15T05:02:15.234Z,100.00
2023-01-15T05:03:13.598Z,100.00
2023-01-15T05:04:14.017Z,100.00
2023-01-15T05:05:12.917Z,100.00
2023-01-15T05:06:12.826Z,100.00
2023-01-15T05:07:13.868Z,100.00
2023-01-15T05:08:14.193Z,100.00
2023-01-15T05:09:14.945Z,100.00
2023-01-15T05:10:12.915Z,100.00
2023-01-15T05:11:12.936Z,100.00
2023-01-15T05:12:13.065Z,100.00
2023-01-15T05:13:13.079Z,100.00
2023-01-15T05:14:13.237Z,100.00
2023-01-15T05:15:13.158Z,100.00
2023-01-15T05:16:13.644Z,100.00
2023-01-15T05:17:13.726Z,100.00
2023-01-15T05:18:13.746Z,100.00
2023-01-15T05:19:13.720Z,100.00
2023-01-15T05:20:13.750Z,100.00
2023-01-15T05:21:13.627Z,100.00
2023-01-15T05:22:13.545Z,100.00
2023-01-15T05:23:13.670Z,100.00
2023-01-15T05:24:13.559Z,100.00
2023-01-15T05:25:13.614Z,100.00
2023-01-15T05:26:13.871Z,100.00
2023-01-15T05:27:13.924Z,100.00
2023-01-15T05:28:13.250Z,100.00
2023-01-15T05:29:13.715Z,100.00
2023-01-15T05:30:13.747Z,100.00
2023-01-15T05:31:14.727Z,100.00
2023-01-15T05:32:13.726Z,100.00
2023-01-15T05:33:14.080Z,100.00
2023-01-15T05:34:13.212Z,100.00
2023-01-15T05:35:13.149Z,100.00
2023-01-15T05:36:13.206Z,100.00
2023-01-15T05:37:13.143Z,100.00
2023-01-15T05:38:13.145Z,100.00
2023-01-15T05:39:13.097Z,100.00
2023-01-15T05:40:12.974Z,100.00
2023-01-15T05:41:13.021Z,100.00
2023-01-15T05:42:12.968Z,100.00
2023-01-15T05:43:12.905Z,100.00
2023-01-15T05:44:13.025Z,100.00
2023-01-15T05:45:13.024Z,100.00
2023-01-15T05:46:13.551Z,100.00
2023-01-15T05:47:13.505Z,100.00
2023-01-15T05:48:13.546Z,100.00
2023-01-15T05:49:13.687Z,100.00
2023-01-15T05:50:13.671Z,100.00
2023-01-15T05:51:13.588Z,100.00
2023-01-15T05:52:13.639Z,100.00
2023-01-15T05:53:13.586Z,100.00
2023-01-15T05:54:13.984Z,100.00
2023-01-15T05:55:12.927Z,100.00
2023-01-15T05:56:13.329Z,100.00
2023-01-15T05:57:13.174Z,100.00
2023-01-15T05:58:13.306Z,100.00
2023-01-15T05:59:13.308Z,100.00
2023-01-15T06:00:13.310Z,100.00
2023-01-15T06:01:13.412Z,100.00
2023-01-15T06:02:13.539Z,100.00
2023-01-15T06:03:13.793Z,100.00
2023-01-15T06:04:14.354Z,100.00
2023-01-15T06:05:13.480Z,100.00
2023-01-15T06:06:13.439Z,100.00
2023-01-15T06:07:13.888Z,100.00
2023-01-15T06:08:14.091Z,100.00
2023-01-15T06:09:13.194Z,100.00
2023-01-15T06:10:13.337Z,100.00
2023-01-15T06:11:13.383Z,100.00
2023-01-15T06:12:13.862Z,100.00
2023-01-15T06:13:13.824Z,100.00
2023-01-15T06:14:14.507Z,100.00
2023-01-15T06:15:13.375Z,100.00
2023-01-15T06:16:13.417Z,100.00
2023-01-15T06:17:13.439Z,100.00
2023-01-15T06:18:13.416Z,100.00
2023-01-15T06:19:13.456Z,100.00
2023-01-15T06:20:13.378Z,100.00
2023-01-15T06:21:13.312Z,100.00
2023-01-15T06:22:13.339Z,100.00
2023-01-15T06:23:13.228Z,100.00
2023-01-15T06:24:13.270Z,100.00
2023-01-15T06:25:13.214Z,100.00
2023-01-15T06:26:13.216Z,100.00
2023-01-15T06:27:13.165Z,100.00
2023-01-15T06:28:13.097Z,100.00
2023-01-15T06:29:13.225Z,100.00
2023-01-15T06:30:13.337Z,100.00
2023-01-15T06:31:13.345Z,100.00
2023-01-15T06:32:13.620Z,100.00
2023-01-15T06:33:13.663Z,100.00
2023-01-15T06:34:13.714Z,100.00
2023-01-15T06:35:13.750Z,100.00
2023-01-15T06:36:13.634Z,100.00
2023-01-15T06:37:13.509Z,100.00
2023-01-15T06:38:13.484Z,100.00
2023-01-15T06:39:13.828Z,100.00
2023-01-15T06:40:13.737Z,100.00
2023-01-15T06:41:13.636Z,100.00
2023-01-15T06:42:13.758Z,100.00
2023-01-15T06:43:13.883Z,100.00
2023-01-15T06:44:13.967Z,100.00
2023-01-15T06:45:13.319Z,100.00
2023-01-15T06:46:13.278Z,100.00
2023-01-15T06:47:13.288Z,100.00
2023-01-15T06:48:13.268Z,100.00
2023-01-15T06:49:13.399Z,100.00
2023-01-15T06:50:14.568Z,100.00
2023-01-15T06:51:13.499Z,100.00
2023-01-15T06:52:13.376Z,100.00
2023-01-15T06:53:13.651Z,100.00
2023-01-15T06:54:13.483Z,100.00
2023-01-15T06:55:13.431Z,100.00
2023-01-15T06:56:13.915Z,100.00
2023-01-15T06:57:13.132Z,100.00
2023-01-15T06:58:13.182Z,100.00
2023-01-15T06:59:13.234Z,100.00
2023-01-15T07:00:13.144Z,100.00
2023-01-15T07:01:13.210Z,100.00
2023-01-15T07:02:13.329Z,100.00
2023-01-15T07:03:13.353Z,100.00
2023-01-15T07:04:13.447Z,100.00
2023-01-15T07:05:13.669Z,100.00
2023-01-15T07:06:13.865Z,100.00
2023-01-15T07:07:14.025Z,100.00
2023-01-15T07:08:13.224Z,100.00
2023-01-15T07:09:13.382Z,100.00
2023-01-15T07:10:13.682Z,100.00
2023-01-15T07:11:13.705Z,100.00
2023-01-15T07:12:13.819Z,100.00
2023-01-15T07:13:13.852Z,100.00
2023-01-15T07:14:13.942Z,100.00
2023-01-15T07:15:13.190Z,100.00
2023-01-15T07:16:13.332Z,100.00
2023-01-15T07:17:13.246Z,100.00
2023-01-15T07:18:13.521Z,100.00
2023-01-15T07:19:13.751Z,100.00
2023-01-15T07:20:13.866Z,100.00
2023-01-15T07:21:13.907Z,100.00
2023-01-15T07:22:12.962Z,100.00
2023-01-15T07:23:14.958Z,100.00
2023-01-15T07:24:13.326Z,100.00
2023-01-15T07:25:13.407Z,100.00
2023-01-15T07:26:13.903Z,100.00
2023-01-15T07:27:12.893Z,100.00
2023-01-15T07:28:13.192Z,100.00
2023-01-15T07:29:13.423Z,100.00
2023-01-15T07:30:13.323Z,100.00
2023-01-15T07:31:13.337Z,100.00
2023-01-15T07:32:13.282Z,100.00
2023-01-15T07:33:13.243Z,100.00
2023-01-15T07:34:13.496Z,100.00
2023-01-15T07:35:13.408Z,100.00
2023-01-15T07:36:13.649Z,100.00
2023-01-15T07:37:13.513Z,100.00
2023-01-15T07:38:13.379Z,100.00
2023-01-15T07:39:13.540Z,100.00
2023-01-15T07:40:13.480Z,100.00
2023-01-15T07:41:13.796Z,100.00
2023-01-15T07:42:14.295Z,100.00
2023-01-15T07:43:13.615Z,100.00
2023-01-15T07:44:13.773Z,100.00
2023-01-15T07:45:13.948Z,100.00
2023-01-15T07:46:13.218Z,100.00
2023-01-15T07:47:13.527Z,100.00
2023-01-15T07:48:14.813Z,100.00
2023-01-15T07:49:13.780Z,100.00
2023-01-15T07:50:14.035Z,100.00
2023-01-15T07:51:13.183Z,100.00
2023-01-15T07:52:13.358Z,100.00
2023-01-15T07:53:13.739Z,100.00
2023-01-15T07:54:13.648Z,100.00
2023-01-15T07:55:13.671Z,100.00
2023-01-15T07:56:14.019Z,100.00
2023-01-15T07:57:12.999Z,100.00
2023-01-15T07:58:13.016Z,100.00
2023-01-15T07:59:13.338Z,100.00
2023-01-15T08:00:13.517Z,100.00
2023-01-15T08:01:13.615Z,100.00
2023-01-15T08:02:13.653Z,100.00
2023-01-15T08:03:13.634Z,100.00
2023-01-15T08:04:13.782Z,100.00
2023-01-15T08:05:14.030Z,100.00
2023-01-15T08:06:12.941Z,100.00
2023-01-15T08:07:13.228Z,100.00
2023-01-15T08:08:13.316Z,100.00
2023-01-15T08:09:14.519Z,100.00
2023-01-15T08:10:13.468Z,100.00
2023-01-15T08:11:13.568Z,100.00
2023-01-15T08:12:13.660Z,100.00
2023-01-15T08:13:13.769Z,100.00
2023-01-15T08:14:14.183Z,100.00
2023-01-15T08:15:13.347Z,100.00
2023-01-15T08:16:13.321Z,100.00
2023-01-15T08:17:13.652Z,100.00
2023-01-15T08:18:13.803Z,100.00
2023-01-15T08:19:13.783Z,100.00
2023-01-15T08:20:13.913Z,100.00
2023-01-15T08:21:13.094Z,100.00
2023-01-15T08:22:13.095Z,100.00
2023-01-15T08:23:13.277Z,100.00
2023-01-15T08:24:13.350Z,100.00
2023-01-15T08:25:13.431Z,100.00
2023-01-15T08:26:13.583Z,100.00
2023-01-15T08:27:13.674Z,100.00
2023-01-15T08:28:13.783Z,100.00
2023-01-15T08:29:14.050Z,100.00
2023-01-15T08:30:13.081Z,100.00
2023-01-15T08:31:13.491Z,100.00
2023-01-15T08:32:13.835Z,100.00
2023-01-15T08:33:13.773Z,100.00
2023-01-15T08:34:13.996Z,100.00
2023-01-15T08:35:12.929Z,100.00
2023-01-15T08:36:13.078Z,100.00
2023-01-15T08:37:13.055Z,100.00
2023-01-15T08:38:13.109Z,100.00
2023-01-15T08:39:13.424Z,100.00
2023-01-15T08:40:13.549Z,100.00
2023-01-15T08:41:13.904Z,100.00
2023-01-15T08:42:12.846Z,100.00
2023-01-15T08:43:13.798Z,100.00
2023-01-15T08:44:14.115Z,100.00
2023-01-15T08:45:13.593Z,100.00
2023-01-15T08:46:13.628Z,100.00
2023-01-15T08:47:13.761Z,100.00
2023-01-15T08:48:13.844Z,100.00
2023-01-15T08:49:13.741Z,100.00
2023-01-15T08:50:13.740Z,100.00
2023-01-15T08:51:13.744Z,100.00
2023-01-15T08:52:13.808Z,100.00
2023-01-15T08:53:14.127Z,100.00
2023-01-15T08:54:13.095Z,100.00
2023-01-15T08:55:13.060Z,100.00
2023-01-15T08:56:13.080Z,100.00
2023-01-15T08:57:13.272Z,100.00
2023-01-15T08:58:13.357Z,100.00
2023-01-15T08:59:13.411Z,100.00
2023-01-15T09:00:13.533Z,100.00
2023-01-15T09:01:13.605Z,100.00
2023-01-15T09:02:13.554Z,100.00
2023-01-15T09:03:13.664Z,100.00
2023-01-15T09:04:13.674Z,100.00
2023-01-15T09:05:13.999Z,100.00
2023-01-15T09:06:12.957Z,100.00
2023-01-15T09:07:13.023Z,100.00
2023-01-15T09:08:13.063Z,100.00
2023-01-15T09:09:13.096Z,100.00
2023-01-15T09:10:13.783Z,100.00
2023-01-15T09:11:13.790Z,100.00
2023-01-15T09:12:13.808Z,100.00
2023-01-15T09:13:13.756Z,100.00
2023-01-15T09:14:58.026Z,100.00
2023-01-15T09:15:13.094Z,100.00
2023-01-15T09:16:13.067Z,100.00
2023-01-15T09:17:13.110Z,100.00
2023-01-15T09:18:13.102Z,100.00
2023-01-15T09:19:13.355Z,100.00
2023-01-15T09:20:13.295Z,100.00
2023-01-15T09:21:13.462Z,100.00
2023-01-15T09:22:13.575Z,100.00
2023-01-15T09:23:13.940Z,100.00
2023-01-15T09:24:12.913Z,100.00
2023-01-15T09:25:12.821Z,100.00
2023-01-15T09:26:13.807Z,100.00
2023-01-15T09:27:13.920Z,100.00
2023-01-15T09:28:13.206Z,100.00
2023-01-15T09:29:13.661Z,100.00
2023-01-15T09:30:13.641Z,100.00
2023-01-15T09:31:13.896Z,100.00
2023-01-15T09:32:12.929Z,100.00
2023-01-15T09:33:12.847Z,100.00
2023-01-15T09:34:13.821Z,100.00
2023-01-15T09:35:14.049Z,100.00
2023-01-15T09:36:13.058Z,100.00
2023-01-15T09:37:13.135Z,100.00
2023-01-15T09:38:13.077Z,100.00
2023-01-15T09:39:13.036Z,100.00
2023-01-15T09:40:13.078Z,100.00
2023-01-15T09:41:13.173Z,100.00
2023-01-15T09:42:13.351Z,100.00
2023-01-15T09:43:13.475Z,100.00
2023-01-15T09:44:13.520Z,100.00
2023-01-15T09:45:13.500Z,100.00
2023-01-15T09:46:13.510Z,100.00
2023-01-15T09:47:13.409Z,100.00
2023-01-15T09:48:13.261Z,100.00
2023-01-15T09:49:13.468Z,100.00
2023-01-15T09:50:13.515Z,100.00
2023-01-15T09:51:13.899Z,100.00
2023-01-15T09:52:12.945Z,100.00
2023-01-15T09:53:13.436Z,100.00
2023-01-15T09:54:13.681Z,100.00
2023-01-15T09:55:13.747Z,100.00
2023-01-15T09:56:14.087Z,100.00
2023-01-15T09:57:13.702Z,100.00
2023-01-15T09:58:13.741Z,100.00
2023-01-15T09:59:13.661Z,100.00
2023-01-15T10:00:13.583Z,100.00
2023-01-15T10:01:13.709Z,100.00
2023-01-15T10:02:14.320Z,100.00
2023-01-15T10:03:13.268Z,100.00
2023-01-15T10:04:13.221Z,100.00
2023-01-15T10:05:13.200Z,100.00
2023-01-15T10:06:13.210Z,100.00
2023-01-15T10:07:13.120Z,100.00
2023-01-15T10:08:13.058Z,100.00
2023-01-15T10:09:13.382Z,100.00
2023-01-15T10:10:13.854Z,100.00
2023-01-15T10:11:13.851Z,100.00
2023-01-15T10:12:13.896Z,100.00
2023-01-15T10:13:13.037Z,100.00
2023-01-15T10:14:13.169Z,100.00
2023-01-15T10:15:13.572Z,100.00
2023-01-15T10:16:13.973Z,100.00
2023-01-15T10:17:13.079Z,100.00
2023-01-15T10:18:13.048Z,100.00
2023-01-15T10:19:13.128Z,100.00
2023-01-15T10:20:13.056Z,100.00
2023-01-15T10:21:13.062Z,100.00
2023-01-15T10:22:12.990Z,100.00
2023-01-15T10:23:12.965Z,100.00
2023-01-15T10:24:13.056Z,100.00
2023-01-15T10:25:13.928Z,100.00
2023-01-15T10:26:12.937Z,100.00
2023-01-15T10:27:13.056Z,100.00
2023-01-15T10:28:13.181Z,100.00
2023-01-15T10:29:13.416Z,100.00
2023-01-15T10:30:13.596Z,100.00
2023-01-15T10:31:13.672Z,100.00
2023-01-15T10:32:13.666Z,100.00
2023-01-15T10:33:13.613Z,100.00
2023-01-15T10:34:13.778Z,100.00
2023-01-15T10:35:13.683Z,100.00
2023-01-15T10:36:13.824Z,100.00
2023-01-15T10:37:13.780Z,100.00
2023-01-15T10:38:13.981Z,100.00
2023-01-15T10:39:12.993Z,100.00
2023-01-15T10:40:12.983Z,100.00
2023-01-15T10:41:12.900Z,100.00
2023-01-15T10:42:13.061Z,100.00
2023-01-15T10:43:13.156Z,100.00
2023-01-15T10:44:13.229Z,100.00
2023-01-15T10:45:13.349Z,100.00
2023-01-15T10:46:13.362Z,100.00
2023-01-15T10:47:13.294Z,100.00
2023-01-15T10:48:13.230Z,100.00
2023-01-15T10:49:13.192Z,100.00
2023-01-15T10:50:13.483Z,100.00
2023-01-15T10:51:13.755Z,100.00
2023-01-15T10:52:13.900Z,100.00
2023-01-15T10:53:14.261Z,100.00
2023-01-15T10:54:13.527Z,100.00
2023-01-15T10:55:13.487Z,100.00
2023-01-15T10:56:13.854Z,100.00
2023-01-15T10:57:13.977Z,100.00
2023-01-15T10:58:12.945Z,100.00
2023-01-15T10:59:12.854Z,100.00
2023-01-15T11:00:13.838Z,100.00
2023-01-15T11:01:13.864Z,100.00
2023-01-15T11:02:13.024Z,95.10
2023-01-15T11:03:13.158Z,93.80
2023-01-15T11:04:13.218Z,100.00
2023-01-15T11:05:13.111Z,100.00
2023-01-15T11:06:13.353Z,93.50
2023-01-15T11:07:13.490Z,97.90
2023-01-15T11:08:58.414Z,97.50
2023-01-15T11:09:13.795Z,92.90
2023-01-15T11:10:13.979Z,97.40
2023-01-15T11:11:13.153Z,99.80
2023-01-15T11:12:13.443Z,100.00
2023-01-15T11:13:13.375Z,100.00
2023-01-15T11:14:13.836Z,100.00
2023-01-15T11:15:13.758Z,98.90
2023-01-15T11:16:13.670Z,85.80
2023-01-15T11:17:13.729Z,85.40
2023-01-15T11:18:13.827Z,89.90
2023-01-15T11:19:13.872Z,93.20
2023-01-15T11:20:13.769Z,87.30
2023-01-15T11:21:14.114Z,91.40
2023-01-15T11:22:13.463Z,99.00
2023-01-15T11:23:13.447Z,99.70
2023-01-15T11:24:13.462Z,100.00
2023-01-15T11:25:13.465Z,100.00
2023-01-15T11:26:13.949Z,100.00
2023-01-15T11:27:12.923Z,98.50
2023-01-15T11:28:13.310Z,100.00
2023-01-15T11:29:13.571Z,100.00
2023-01-15T11:30:13.451Z,100.00
2023-01-15T11:31:13.542Z,100.00
2023-01-15T11:32:13.896Z,100.00
2023-01-15T11:33:13.951Z,100.00
2023-01-15T11:34:14.468Z,100.00
2023-01-15T11:35:13.518Z,100.00
2023-01-15T11:36:13.603Z,100.00
2023-01-15T11:37:13.498Z,100.00
2023-01-15T11:38:13.390Z,100.00
2023-01-15T11:39:13.364Z,100.00
2023-01-15T11:40:13.316Z,100.00
2023-01-15T11:41:13.616Z,100.00
2023-01-15T11:42:13.920Z,100.00
2023-01-15T11:43:13.045Z,100.00
2023-01-15T11:44:13.335Z,100.00
2023-01-15T11:45:13.416Z,100.00
2023-01-15T11:46:13.490Z,100.00
2023-01-15T11:47:13.534Z,100.00
2023-01-15T11:48:13.534Z,100.00
2023-01-15T11:49:13.611Z,100.00
2023-01-15T11:50:13.735Z,100.00
2023-01-15T11:51:13.724Z,100.00
2023-01-15T11:52:13.784Z,100.00
2023-01-15T11:53:13.739Z,100.00
2023-01-15T11:54:13.779Z,100.00
2023-01-15T11:55:14.145Z,100.00
2023-01-15T11:56:13.459Z,98.60
2023-01-15T11:57:13.796Z,100.00
2023-01-15T11:58:13.705Z,100.00
2023-01-15T11:59:19.177Z,100.00
2023-01-15T12:00:13.545Z,98.70
2023-01-15T12:01:13.676Z,100.00
2023-01-15T12:02:13.726Z,98.70
2023-01-15T12:03:13.791Z,100.00
2023-01-15T12:04:13.769Z,98.60
2023-01-15T12:05:14.026Z,100.00
2023-01-15T12:06:13.408Z,99.90
2023-01-15T12:07:13.495Z,100.00
2023-01-15T12:08:13.630Z,100.00
2023-01-15T12:09:13.630Z,100.00
2023-01-15T12:10:13.660Z,100.00
2023-01-15T12:11:25.939Z,100.00
2023-01-15T12:12:13.042Z,100.00
2023-01-15T12:13:12.947Z,100.00
2023-01-15T12:14:12.915Z,100.00
2023-01-15T12:15:12.905Z,100.00
2023-01-15T12:16:13.086Z,100.00
2023-01-15T12:17:13.393Z,100.00
2023-01-15T12:18:13.450Z,100.00
2023-01-15T12:19:13.647Z,98.90
2023-01-15T12:20:13.584Z,100.00
2023-01-15T12:21:13.807Z,100.00
2023-01-15T12:22:13.836Z,100.00
2023-01-15T12:23:14.136Z,100.00
2023-01-15T12:24:13.457Z,94.40
2023-01-15T12:25:13.599Z,92.20
2023-01-15T12:26:14.105Z,88.60
2023-01-15T12:27:13.576Z,88.80
2023-01-15T12:28:13.815Z,95.70
2023-01-15T12:29:13.973Z,98.30